sensor_id;sensor_type;location;lat;lon;timestamp;pressure;altitude;pressure_sealevel;temperature;humidity
62978;BME280;49073;42.352;23.808;2023-03-31T00:00:21;94711.25;;;4.96;66.58
62978;BME280;49073;42.352;23.808;2023-03-31T00:03:22;94720.56;;;4.93;66.33
62978;BME280;49073;42.352;23.808;2023-03-31T00:06:24;94719.50;;;4.86;66.27
62978;BME280;49073;42.352;23.808;2023-03-31T00:09:24;94717.66;;;4.77;66.82
62978;BME280;49073;42.352;23.808;2023-03-31T00:12:25;94702.34;;;5.01;66.39
62978;BME280;49073;42.352;23.808;2023-03-31T00:15:26;94704.75;;;4.85;66.22
62978;BME280;49073;42.352;23.808;2023-03-31T00:18:27;94707.28;;;4.63;67.16
62978;BME280;49073;42.352;23.808;2023-03-31T00:21:29;94701.59;;;4.44;68.01
62978;BME280;49073;42.352;23.808;2023-03-31T00:24:33;94695.97;;;4.45;68.04
62978;BME280;49073;42.352;23.808;2023-03-31T00:27:34;94693.66;;;4.35;67.66
62978;BME280;49073;42.352;23.808;2023-03-31T00:30:35;94688.25;;;4.22;68.48
62978;BME280;49073;42.352;23.808;2023-03-31T00:33:36;94680.78;;;4.07;68.81
62978;BME280;49073;42.352;23.808;2023-03-31T00:36:36;94684.38;;;4.02;68.67
62978;BME280;49073;42.352;23.808;2023-03-31T00:39:46;94683.13;;;4.00;69.07
62978;BME280;49073;42.352;23.808;2023-03-31T00:42:46;94679.41;;;4.01;69.73
62978;BME280;49073;42.352;23.808;2023-03-31T00:45:47;94681.59;;;3.90;69.57
62978;BME280;49073;42.352;23.808;2023-03-31T00:48:53;94686.84;;;3.81;70.44
62978;BME280;49073;42.352;23.808;2023-03-31T00:52:03;94673.50;;;3.86;69.84
62978;BME280;49073;42.352;23.808;2023-03-31T00:55:14;94654.59;;;3.75;69.48
62978;BME280;49073;42.352;23.808;2023-03-31T00:58:17;94660.81;;;3.88;69.98
62978;BME280;49073;42.352;23.808;2023-03-31T01:01:21;94654.44;;;3.89;70.16
62978;BME280;49073;42.352;23.808;2023-03-31T01:04:24;94648.25;;;3.85;69.48
62978;BME280;49073;42.352;23.808;2023-03-31T01:07:51;94651.19;;;3.75;69.67
62978;BME280;49073;42.352;23.808;2023-03-31T01:10:53;94654.44;;;3.63;70.33
62978;BME280;49073;42.352;23.808;2023-03-31T01:13:56;94651.50;;;3.64;70.64
62978;BME280;49073;42.352;23.808;2023-03-31T01:16:57;94643.75;;;3.86;70.86
62978;BME280;49073;42.352;23.808;2023-03-31T01:30:36;94638.94;;;3.97;72.59
62978;BME280;49073;42.352;23.808;2023-03-31T01:37:27;94631.00;;;4.23;72.84
62978;BME280;49073;42.352;23.808;2023-03-31T01:41:31;94627.59;;;4.14;72.99
62978;BME280;49073;42.352;23.808;2023-03-31T01:44:21;94631.91;;;4.27;72.51
62978;BME280;49073;42.352;23.808;2023-03-31T01:47:36;94630.94;;;4.41;72.26
62978;BME280;49073;42.352;23.808;2023-03-31T01:50:55;94631.09;;;4.44;72.28
62978;BME280;49073;42.352;23.808;2023-03-31T01:54:04;94636.72;;;4.43;72.38
62978;BME280;49073;42.352;23.808;2023-03-31T02:00:46;94622.81;;;4.63;72.08
62978;BME280;49073;42.352;23.808;2023-03-31T02:03:57;94623.28;;;4.65;72.35
62978;BME280;49073;42.352;23.808;2023-03-31T02:07:06;94623.38;;;4.87;72.49
62978;BME280;49073;42.352;23.808;2023-03-31T02:10:11;94637.59;;;4.94;72.82
62978;BME280;49073;42.352;23.808;2023-03-31T02:13:13;94635.66;;;4.83;73.27
62978;BME280;49073;42.352;23.808;2023-03-31T02:16:20;94633.78;;;4.83;73.31
62978;BME280;49073;42.352;23.808;2023-03-31T02:19:27;94632.09;;;4.78;73.38
62978;BME280;49073;42.352;23.808;2023-03-31T02:22:31;94635.16;;;4.89;72.63
62978;BME280;49073;42.352;23.808;2023-03-31T02:25:39;94635.53;;;5.09;71.83
62978;BME280;49073;42.352;23.808;2023-03-31T02:28:42;94635.28;;;4.93;73.50
62978;BME280;49073;42.352;23.808;2023-03-31T02:31:46;94638.13;;;4.88;73.35
62978;BME280;49073;42.352;23.808;2023-03-31T02:34:48;94639.75;;;5.01;73.15
62978;BME280;49073;42.352;23.808;2023-03-31T02:37:49;94644.25;;;5.01;73.62
62978;BME280;49073;42.352;23.808;2023-03-31T02:40:50;94642.56;;;5.05;73.20
62978;BME280;49073;42.352;23.808;2023-03-31T02:43:51;94646.50;;;5.20;73.15
62978;BME280;49073;42.352;23.808;2023-03-31T02:46:52;94630.97;;;5.18;73.70
62978;BME280;49073;42.352;23.808;2023-03-31T02:49:55;94644.03;;;5.15;74.16
62978;BME280;49073;42.352;23.808;2023-03-31T02:53:12;94648.16;;;5.33;73.64
62978;BME280;49073;42.352;23.808;2023-03-31T02:56:28;94652.44;;;5.47;74.02
62978;BME280;49073;42.352;23.808;2023-03-31T03:16:16;94675.47;;;5.67;75.27
62978;BME280;49073;42.352;23.808;2023-03-31T03:19:20;94675.16;;;5.69;78.04
62978;BME280;49073;42.352;23.808;2023-03-31T03:22:22;94685.63;;;5.57;79.84
62978;BME280;49073;42.352;23.808;2023-03-31T03:25:22;94682.13;;;5.44;82.05
62978;BME280;49073;42.352;23.808;2023-03-31T03:28:23;94671.22;;;5.45;82.30
62978;BME280;49073;42.352;23.808;2023-03-31T03:31:24;94655.91;;;5.38;81.77
62978;BME280;49073;42.352;23.808;2023-03-31T03:34:25;94663.56;;;5.52;81.57
62978;BME280;49073;42.352;23.808;2023-03-31T03:37:26;94648.13;;;5.63;82.17
62978;BME280;49073;42.352;23.808;2023-03-31T03:40:27;94646.25;;;5.64;84.27
62978;BME280;49073;42.352;23.808;2023-03-31T03:43:27;94636.97;;;5.79;84.36
62978;BME280;49073;42.352;23.808;2023-03-31T03:46:28;94626.19;;;5.84;86.28
62978;BME280;49073;42.352;23.808;2023-03-31T03:49:28;94627.47;;;5.99;88.77
62978;BME280;49073;42.352;23.808;2023-03-31T03:52:29;94608.28;;;6.23;89.51
62978;BME280;49073;42.352;23.808;2023-03-31T03:55:29;94593.22;;;6.36;89.48
62978;BME280;49073;42.352;23.808;2023-03-31T03:58:30;94597.88;;;6.39;90.59
62978;BME280;49073;42.352;23.808;2023-03-31T04:01:30;94604.13;;;6.35;90.92
62978;BME280;49073;42.352;23.808;2023-03-31T04:04:31;94601.69;;;6.30;91.60
62978;BME280;49073;42.352;23.808;2023-03-31T04:07:31;94597.13;;;6.18;92.07
62978;BME280;49073;42.352;23.808;2023-03-31T04:10:32;94584.94;;;6.25;90.98
62978;BME280;49073;42.352;23.808;2023-03-31T04:13:33;94584.81;;;6.22;91.06
62978;BME280;49073;42.352;23.808;2023-03-31T04:16:34;94611.03;;;6.48;87.31
62978;BME280;49073;42.352;23.808;2023-03-31T04:19:34;94612.59;;;5.94;87.21
62978;BME280;49073;42.352;23.808;2023-03-31T04:22:35;94605.97;;;5.67;87.28
62978;BME280;49073;42.352;23.808;2023-03-31T04:25:40;94604.56;;;5.82;86.50
62978;BME280;49073;42.352;23.808;2023-03-31T04:28:45;94598.84;;;5.80;86.83
62978;BME280;49073;42.352;23.808;2023-03-31T04:31:49;94597.50;;;5.74;87.55
62978;BME280;49073;42.352;23.808;2023-03-31T04:34:51;94595.34;;;5.88;87.68
62978;BME280;49073;42.352;23.808;2023-03-31T04:38:01;94594.91;;;5.86;86.80
62978;BME280;49073;42.352;23.808;2023-03-31T04:41:02;94590.00;;;5.97;87.43
62978;BME280;49073;42.352;23.808;2023-03-31T04:44:03;94590.06;;;6.09;87.03
62978;BME280;49073;42.352;23.808;2023-03-31T04:47:03;94588.41;;;6.05;88.38
62978;BME280;49073;42.352;23.808;2023-03-31T04:50:06;94588.19;;;6.10;89.18
62978;BME280;49073;42.352;23.808;2023-03-31T04:53:07;94580.94;;;6.19;88.95
62978;BME280;49073;42.352;23.808;2023-03-31T04:56:08;94572.63;;;6.54;85.86
62978;BME280;49073;42.352;23.808;2023-03-31T04:59:08;94570.88;;;6.83;83.68
62978;BME280;49073;42.352;23.808;2023-03-31T05:02:10;94575.53;;;7.11;81.12
62978;BME280;49073;42.352;23.808;2023-03-31T05:05:11;94578.16;;;7.24;79.88
62978;BME280;49073;42.352;23.808;2023-03-31T05:08:11;94566.53;;;7.28;79.33
62978;BME280;49073;42.352;23.808;2023-03-31T05:11:12;94567.06;;;7.47;78.37
62978;BME280;49073;42.352;23.808;2023-03-31T05:14:12;94566.56;;;7.57;77.49
62978;BME280;49073;42.352;23.808;2023-03-31T05:17:13;94555.84;;;7.66;75.96
62978;BME280;49073;42.352;23.808;2023-03-31T05:20:14;94563.91;;;7.69;77.50
62978;BME280;49073;42.352;23.808;2023-03-31T05:23:14;94573.94;;;7.76;78.84
62978;BME280;49073;42.352;23.808;2023-03-31T05:26:15;94562.94;;;7.90;77.89
62978;BME280;49073;42.352;23.808;2023-03-31T05:29:16;94577.81;;;8.07;75.57
62978;BME280;49073;42.352;23.808;2023-03-31T05:32:16;94579.19;;;8.33;73.25
62978;BME280;49073;42.352;23.808;2023-03-31T05:35:17;94579.31;;;8.37;72.20
62978;BME280;49073;42.352;23.808;2023-03-31T05:38:18;94572.78;;;8.34;72.68
62978;BME280;49073;42.352;23.808;2023-03-31T05:41:18;94567.16;;;8.36;72.37
62978;BME280;49073;42.352;23.808;2023-03-31T05:44:19;94559.34;;;8.43;71.67
62978;BME280;49073;42.352;23.808;2023-03-31T05:47:20;94549.59;;;8.47;71.53
62978;BME280;49073;42.352;23.808;2023-03-31T05:50:20;94541.38;;;8.52;71.65
62978;BME280;49073;42.352;23.808;2023-03-31T05:53:21;94532.56;;;8.64;70.23
62978;BME280;49073;42.352;23.808;2023-03-31T05:56:21;94524.50;;;8.77;70.13
62978;BME280;49073;42.352;23.808;2023-03-31T05:59:23;94528.44;;;8.83;69.63
62978;BME280;49073;42.352;23.808;2023-03-31T06:02:25;94529.28;;;8.87;69.24
62978;BME280;49073;42.352;23.808;2023-03-31T06:05:25;94515.16;;;9.19;68.89
62978;BME280;49073;42.352;23.808;2023-03-31T06:08:26;94516.00;;;9.23;67.38
62978;BME280;49073;42.352;23.808;2023-03-31T06:11:27;94516.13;;;9.30;67.98
62978;BME280;49073;42.352;23.808;2023-03-31T06:14:27;94511.28;;;9.52;67.95
62978;BME280;49073;42.352;23.808;2023-03-31T06:17:28;94516.59;;;9.71;66.31
62978;BME280;49073;42.352;23.808;2023-03-31T06:20:28;94508.59;;;9.71;66.19
62978;BME280;49073;42.352;23.808;2023-03-31T06:23:29;94506.34;;;9.73;66.45
62978;BME280;49073;42.352;23.808;2023-03-31T06:26:30;94514.06;;;9.79;64.76
62978;BME280;49073;42.352;23.808;2023-03-31T06:29:30;94510.06;;;9.88;63.98
62978;BME280;49073;42.352;23.808;2023-03-31T06:32:31;94506.03;;;9.98;63.13
62978;BME280;49073;42.352;23.808;2023-03-31T06:35:31;94502.25;;;9.99;63.22
62978;BME280;49073;42.352;23.808;2023-03-31T06:38:34;94506.91;;;10.02;61.83
62978;BME280;49073;42.352;23.808;2023-03-31T06:41:34;94518.41;;;10.10;60.90
62978;BME280;49073;42.352;23.808;2023-03-31T06:44:35;94519.31;;;10.18;60.90
62978;BME280;49073;42.352;23.808;2023-03-31T06:47:36;94523.00;;;10.33;61.00
62978;BME280;49073;42.352;23.808;2023-03-31T06:50:41;94521.59;;;10.39;59.07
62978;BME280;49073;42.352;23.808;2023-03-31T06:53:41;94510.88;;;10.59;58.96
62978;BME280;49073;42.352;23.808;2023-03-31T06:56:42;94528.72;;;10.82;58.99
62978;BME280;49073;42.352;23.808;2023-03-31T06:59:44;94518.72;;;10.98;56.86
62978;BME280;49073;42.352;23.808;2023-03-31T07:02:44;94509.09;;;11.20;56.08
62978;BME280;49073;42.352;23.808;2023-03-31T07:05:49;94515.25;;;11.25;54.65
62978;BME280;49073;42.352;23.808;2023-03-31T07:08:50;94510.00;;;11.32;53.35
62978;BME280;49073;42.352;23.808;2023-03-31T07:11:50;94517.88;;;11.52;53.72
62978;BME280;49073;42.352;23.808;2023-03-31T07:14:51;94509.94;;;11.59;52.88
62978;BME280;49073;42.352;23.808;2023-03-31T07:17:51;94514.72;;;11.76;51.74
62978;BME280;49073;42.352;23.808;2023-03-31T07:20:53;94504.94;;;11.88;52.62
62978;BME280;49073;42.352;23.808;2023-03-31T07:23:53;94497.81;;;11.99;51.63
62978;BME280;49073;42.352;23.808;2023-03-31T07:26:54;94517.53;;;12.25;50.37
62978;BME280;49073;42.352;23.808;2023-03-31T07:29:54;94509.91;;;12.27;50.59
62978;BME280;49073;42.352;23.808;2023-03-31T07:32:55;94506.50;;;12.27;49.59
62978;BME280;49073;42.352;23.808;2023-03-31T07:35:56;94508.91;;;12.01;49.75
62978;BME280;49073;42.352;23.808;2023-03-31T07:38:56;94508.03;;;11.90;50.71
62978;BME280;49073;42.352;23.808;2023-03-31T07:41:57;94503.25;;;12.06;50.48
62978;BME280;49073;42.352;23.808;2023-03-31T07:44:58;94521.81;;;12.33;50.13
62978;BME280;49073;42.352;23.808;2023-03-31T07:47:59;94495.75;;;12.19;49.51
62978;BME280;49073;42.352;23.808;2023-03-31T07:50:59;94498.34;;;12.12;49.89
62978;BME280;49073;42.352;23.808;2023-03-31T07:54:00;94500.16;;;12.04;49.77
62978;BME280;49073;42.352;23.808;2023-03-31T07:57:02;94491.69;;;11.99;49.58
62978;BME280;49073;42.352;23.808;2023-03-31T08:00:06;94492.78;;;11.94;49.62
62978;BME280;49073;42.352;23.808;2023-03-31T08:03:08;94508.44;;;11.96;49.79
62978;BME280;49073;42.352;23.808;2023-03-31T08:06:09;94498.66;;;12.07;50.24
62978;BME280;49073;42.352;23.808;2023-03-31T08:09:10;94491.28;;;12.34;50.07
62978;BME280;49073;42.352;23.808;2023-03-31T08:12:11;94480.44;;;12.65;50.88
62978;BME280;49073;42.352;23.808;2023-03-31T08:15:12;94482.19;;;12.95;49.57
62978;BME280;49073;42.352;23.808;2023-03-31T08:18:12;94475.59;;;12.82;49.43
62978;BME280;49073;42.352;23.808;2023-03-31T08:21:13;94475.56;;;12.78;50.40
62978;BME280;49073;42.352;23.808;2023-03-31T08:24:14;94461.50;;;12.88;50.27
62978;BME280;49073;42.352;23.808;2023-03-31T08:27:15;94437.59;;;13.21;51.04
62978;BME280;49073;42.352;23.808;2023-03-31T08:30:18;94442.28;;;13.38;49.35
62978;BME280;49073;42.352;23.808;2023-03-31T08:33:19;94428.91;;;13.42;49.61
62978;BME280;49073;42.352;23.808;2023-03-31T08:36:19;94432.41;;;13.64;50.70
62978;BME280;49073;42.352;23.808;2023-03-31T08:39:21;94441.63;;;13.78;49.60
62978;BME280;49073;42.352;23.808;2023-03-31T08:45:41;94424.03;;;13.84;49.35
62978;BME280;49073;42.352;23.808;2023-03-31T08:48:48;94422.94;;;14.36;50.17
62978;BME280;49073;42.352;23.808;2023-03-31T08:51:55;94408.78;;;14.43;48.13
62978;BME280;49073;42.352;23.808;2023-03-31T08:55:01;94408.00;;;14.38;48.00
62978;BME280;49073;42.352;23.808;2023-03-31T09:01:41;94403.38;;;14.86;46.07
62978;BME280;49073;42.352;23.808;2023-03-31T09:14:40;94400.31;;;14.84;45.07
62978;BME280;49073;42.352;23.808;2023-03-31T09:17:46;94384.59;;;14.68;44.40
62978;BME280;49073;42.352;23.808;2023-03-31T09:20:50;94384.19;;;14.69;44.73
62978;BME280;49073;42.352;23.808;2023-03-31T09:27:14;94380.94;;;15.36;42.05
62978;BME280;49073;42.352;23.808;2023-03-31T09:30:21;94387.00;;;15.48;41.21
62978;BME280;49073;42.352;23.808;2023-03-31T09:33:29;94379.59;;;15.70;41.78
62978;BME280;49073;42.352;23.808;2023-03-31T09:36:33;94374.16;;;15.81;40.42
62978;BME280;49073;42.352;23.808;2023-03-31T09:39:34;94383.63;;;16.07;39.36
62978;BME280;49073;42.352;23.808;2023-03-31T09:42:36;94374.03;;;16.06;39.15
62978;BME280;49073;42.352;23.808;2023-03-31T09:45:38;94379.09;;;15.97;38.48
62978;BME280;49073;42.352;23.808;2023-03-31T09:48:39;94380.66;;;15.83;38.18
62978;BME280;49073;42.352;23.808;2023-03-31T09:51:45;94374.97;;;15.78;38.05
62978;BME280;49073;42.352;23.808;2023-03-31T09:54:50;94371.94;;;15.68;37.71
62978;BME280;49073;42.352;23.808;2023-03-31T09:57:52;94383.53;;;15.54;38.51
62978;BME280;49073;42.352;23.808;2023-03-31T10:01:05;94385.84;;;15.52;38.60
62978;BME280;49073;42.352;23.808;2023-03-31T10:04:09;94368.91;;;15.63;39.37
62978;BME280;49073;42.352;23.808;2023-03-31T10:07:10;94377.69;;;16.27;37.75
62978;BME280;49073;42.352;23.808;2023-03-31T10:10:25;94381.41;;;16.40;37.15
62978;BME280;49073;42.352;23.808;2023-03-31T10:13:35;94370.28;;;16.38;37.87
62978;BME280;49073;42.352;23.808;2023-03-31T10:19:53;94376.06;;;16.79;38.31
62978;BME280;49073;42.352;23.808;2023-03-31T10:22:55;94361.00;;;16.85;37.40
62978;BME280;49073;42.352;23.808;2023-03-31T10:25:56;94374.56;;;17.12;38.24
62978;BME280;49073;42.352;23.808;2023-03-31T10:28:56;94378.34;;;16.80;38.03
62978;BME280;49073;42.352;23.808;2023-03-31T10:32:08;94366.34;;;16.50;37.89
62978;BME280;49073;42.352;23.808;2023-03-31T10:35:31;94362.31;;;16.69;37.66
62978;BME280;49073;42.352;23.808;2023-03-31T10:38:37;94352.41;;;16.97;37.70
62978;BME280;49073;42.352;23.808;2023-03-31T10:41:42;94358.94;;;16.62;38.36
62978;BME280;49073;42.352;23.808;2023-03-31T10:44:42;94343.41;;;16.77;39.11
62978;BME280;49073;42.352;23.808;2023-03-31T10:47:47;94346.19;;;16.66;36.87
62978;BME280;49073;42.352;23.808;2023-03-31T10:50:49;94355.81;;;17.01;37.30
62978;BME280;49073;42.352;23.808;2023-03-31T10:53:54;94339.88;;;16.83;37.66
62978;BME280;49073;42.352;23.808;2023-03-31T10:56:59;94336.66;;;16.96;38.02
62978;BME280;49073;42.352;23.808;2023-03-31T11:00:07;94328.25;;;17.25;36.47
62978;BME280;49073;42.352;23.808;2023-03-31T11:07:05;94335.09;;;16.98;37.44
62978;BME280;49073;42.352;23.808;2023-03-31T11:14:00;94311.31;;;16.58;38.45
62978;BME280;49073;42.352;23.808;2023-03-31T11:17:30;94312.28;;;16.76;37.09
62978;BME280;49073;42.352;23.808;2023-03-31T11:20:38;94308.41;;;17.11;37.37
62978;BME280;49073;42.352;23.808;2023-03-31T11:23:44;94293.63;;;16.61;37.21
62978;BME280;49073;42.352;23.808;2023-03-31T11:30:09;94279.56;;;16.42;38.12
62978;BME280;49073;42.352;23.808;2023-03-31T11:33:21;94279.56;;;16.77;38.41
62978;BME280;49073;42.352;23.808;2023-03-31T11:43:46;94270.75;;;16.77;36.24
62978;BME280;49073;42.352;23.808;2023-03-31T11:46:54;94270.22;;;16.58;37.89
62978;BME280;49073;42.352;23.808;2023-03-31T11:50:01;94262.34;;;16.71;37.54
62978;BME280;49073;42.352;23.808;2023-03-31T11:53:16;94246.91;;;16.79;37.52
62978;BME280;49073;42.352;23.808;2023-03-31T11:56:18;94244.59;;;16.77;37.90
62978;BME280;49073;42.352;23.808;2023-03-31T11:59:21;94250.91;;;16.94;37.18
62978;BME280;49073;42.352;23.808;2023-03-31T12:02:53;94245.72;;;16.80;36.60
62978;BME280;49073;42.352;23.808;2023-03-31T12:06:02;94234.72;;;16.67;36.84
62978;BME280;49073;42.352;23.808;2023-03-31T12:16:13;94226.34;;;16.61;37.49
62978;BME280;49073;42.352;23.808;2023-03-31T12:22:39;94206.84;;;16.53;37.16
62978;BME280;49073;42.352;23.808;2023-03-31T12:26:14;94198.19;;;16.69;37.59
62978;BME280;49073;42.352;23.808;2023-03-31T12:29:28;94197.97;;;16.87;37.67
62978;BME280;49073;42.352;23.808;2023-03-31T12:32:33;94188.47;;;16.79;36.67
62978;BME280;49073;42.352;23.808;2023-03-31T12:43:04;94184.13;;;16.58;37.57
62978;BME280;49073;42.352;23.808;2023-03-31T12:46:31;94190.81;;;16.46;38.07
62978;BME280;49073;42.352;23.808;2023-03-31T12:56:14;94167.56;;;16.60;38.70
62978;BME280;49073;42.352;23.808;2023-03-31T12:59:27;94162.78;;;16.75;38.21
62978;BME280;49073;42.352;23.808;2023-03-31T13:02:31;94163.72;;;16.88;37.76
62978;BME280;49073;42.352;23.808;2023-03-31T13:08:50;94142.97;;;16.89;36.99
62978;BME280;49073;42.352;23.808;2023-03-31T13:11:51;94146.66;;;17.02;37.20
62978;BME280;49073;42.352;23.808;2023-03-31T13:14:53;94133.25;;;17.22;37.15
62978;BME280;49073;42.352;23.808;2023-03-31T13:18:04;94123.72;;;17.18;36.81
62978;BME280;49073;42.352;23.808;2023-03-31T13:21:05;94123.16;;;17.50;37.54
62978;BME280;49073;42.352;23.808;2023-03-31T13:24:07;94123.75;;;17.82;36.28
62978;BME280;49073;42.352;23.808;2023-03-31T13:27:29;94111.56;;;17.97;35.00
62978;BME280;49073;42.352;23.808;2023-03-31T13:33:40;94111.19;;;17.95;35.44
62978;BME280;49073;42.352;23.808;2023-03-31T13:36:51;94096.00;;;18.25;34.52
62978;BME280;49073;42.352;23.808;2023-03-31T13:40:37;94088.25;;;18.27;34.88
62978;BME280;49073;42.352;23.808;2023-03-31T14:00:49;94056.63;;;17.71;35.23
62978;BME280;49073;42.352;23.808;2023-03-31T14:07:01;94044.50;;;17.79;35.71
62978;BME280;49073;42.352;23.808;2023-03-31T14:10:28;94035.75;;;17.55;35.54
62978;BME280;49073;42.352;23.808;2023-03-31T14:13:29;94030.38;;;17.31;36.18
62978;BME280;49073;42.352;23.808;2023-03-31T14:16:52;94034.94;;;17.14;36.55
62978;BME280;49073;42.352;23.808;2023-03-31T14:37:00;94016.66;;;16.78;38.24
62978;BME280;49073;42.352;23.808;2023-03-31T14:40:04;94024.34;;;16.79;37.89
62978;BME280;49073;42.352;23.808;2023-03-31T14:43:05;94025.44;;;16.82;38.35
62978;BME280;49073;42.352;23.808;2023-03-31T14:46:07;94026.22;;;16.82;37.37
62978;BME280;49073;42.352;23.808;2023-03-31T14:49:19;94023.56;;;16.79;37.65
62978;BME280;49073;42.352;23.808;2023-03-31T14:52:21;94021.69;;;16.76;37.15
62978;BME280;49073;42.352;23.808;2023-03-31T14:55:29;94009.34;;;16.78;37.67
62978;BME280;49073;42.352;23.808;2023-03-31T14:58:34;94017.41;;;16.78;38.24
62978;BME280;49073;42.352;23.808;2023-03-31T15:01:37;94017.25;;;16.65;37.22
62978;BME280;49073;42.352;23.808;2023-03-31T15:04:39;94007.47;;;16.75;37.25
62978;BME280;49073;42.352;23.808;2023-03-31T15:07:47;94006.28;;;16.76;37.23
62978;BME280;49073;42.352;23.808;2023-03-31T15:11:09;94002.50;;;16.73;38.53
62978;BME280;49073;42.352;23.808;2023-03-31T15:14:10;93998.56;;;16.78;38.42
62978;BME280;49073;42.352;23.808;2023-03-31T15:17:25;93999.44;;;16.95;37.72
62978;BME280;49073;42.352;23.808;2023-03-31T15:20:45;93994.25;;;17.08;35.47
62978;BME280;49073;42.352;23.808;2023-03-31T15:23:46;93999.66;;;17.08;35.97
62978;BME280;49073;42.352;23.808;2023-03-31T15:29:58;93986.22;;;17.05;36.15
62978;BME280;49073;42.352;23.808;2023-03-31T15:33:00;93985.06;;;17.06;35.91
62978;BME280;49073;42.352;23.808;2023-03-31T15:36:04;93979.41;;;17.00;36.04
62978;BME280;49073;42.352;23.808;2023-03-31T15:39:06;93966.53;;;16.87;35.22
62978;BME280;49073;42.352;23.808;2023-03-31T15:42:07;93984.81;;;16.96;35.84
62978;BME280;49073;42.352;23.808;2023-03-31T15:48:33;93984.59;;;16.87;35.50
62978;BME280;49073;42.352;23.808;2023-03-31T15:51:36;93972.44;;;16.79;35.43
62978;BME280;49073;42.352;23.808;2023-03-31T15:54:40;93978.28;;;16.73;36.02
62978;BME280;49073;42.352;23.808;2023-03-31T15:57:43;93971.50;;;16.65;35.21
62978;BME280;49073;42.352;23.808;2023-03-31T16:00:46;93978.88;;;16.61;35.57
62978;BME280;49073;42.352;23.808;2023-03-31T16:03:51;93984.66;;;16.60;36.60
62978;BME280;49073;42.352;23.808;2023-03-31T16:07:05;93983.22;;;16.55;35.51
62978;BME280;49073;42.352;23.808;2023-03-31T16:10:19;93978.72;;;16.44;35.23
62978;BME280;49073;42.352;23.808;2023-03-31T16:13:21;93978.50;;;16.35;35.08
62978;BME280;49073;42.352;23.808;2023-03-31T16:16:24;93982.44;;;16.31;35.29
62978;BME280;49073;42.352;23.808;2023-03-31T16:19:28;93979.38;;;16.28;35.37
62978;BME280;49073;42.352;23.808;2023-03-31T16:22:38;93971.66;;;16.31;35.28
62978;BME280;49073;42.352;23.808;2023-03-31T16:25:40;93979.50;;;16.21;36.36
62978;BME280;49073;42.352;23.808;2023-03-31T16:28:48;93976.19;;;16.10;36.35
62978;BME280;49073;42.352;23.808;2023-03-31T16:31:49;93983.25;;;16.00;36.29
62978;BME280;49073;42.352;23.808;2023-03-31T16:34:56;93968.41;;;15.88;36.99
62978;BME280;49073;42.352;23.808;2023-03-31T16:37:58;93982.88;;;15.67;37.64
62978;BME280;49073;42.352;23.808;2023-03-31T16:41:00;93976.59;;;15.46;39.17
62978;BME280;49073;42.352;23.808;2023-03-31T16:44:01;93978.44;;;15.18;40.06
62978;BME280;49073;42.352;23.808;2023-03-31T16:47:02;93974.72;;;15.05;40.91
62978;BME280;49073;42.352;23.808;2023-03-31T16:50:04;93979.66;;;14.68;42.16
62978;BME280;49073;42.352;23.808;2023-03-31T16:53:07;93979.06;;;14.42;42.41
62978;BME280;49073;42.352;23.808;2023-03-31T16:56:12;93974.88;;;14.41;42.42
62978;BME280;49073;42.352;23.808;2023-03-31T16:59:13;93975.41;;;14.25;42.99
62978;BME280;49073;42.352;23.808;2023-03-31T17:02:14;93977.84;;;14.01;43.93
62978;BME280;49073;42.352;23.808;2023-03-31T17:05:15;93982.03;;;14.06;43.49
62978;BME280;49073;42.352;23.808;2023-03-31T17:08:16;93985.09;;;14.04;43.89
62978;BME280;49073;42.352;23.808;2023-03-31T17:11:16;93979.50;;;13.80;44.51
62978;BME280;49073;42.352;23.808;2023-03-31T17:14:17;93975.69;;;13.74;44.38
62978;BME280;49073;42.352;23.808;2023-03-31T17:17:17;93981.44;;;13.76;45.67
62978;BME280;49073;42.352;23.808;2023-03-31T17:20:18;93987.25;;;13.57;45.88
62978;BME280;49073;42.352;23.808;2023-03-31T17:23:20;93981.59;;;13.26;45.83
62978;BME280;49073;42.352;23.808;2023-03-31T17:26:22;93987.00;;;13.11;46.13
62978;BME280;49073;42.352;23.808;2023-03-31T17:29:23;93990.06;;;13.06;46.33
62978;BME280;49073;42.352;23.808;2023-03-31T17:32:25;93995.78;;;13.04;47.71
62978;BME280;49073;42.352;23.808;2023-03-31T17:35:25;93993.53;;;12.74;48.14
62978;BME280;49073;42.352;23.808;2023-03-31T17:38:26;93998.13;;;12.70;48.30
62978;BME280;49073;42.352;23.808;2023-03-31T17:41:27;94008.84;;;12.48;48.96
62978;BME280;49073;42.352;23.808;2023-03-31T17:44:31;94008.78;;;12.01;50.51
62978;BME280;49073;42.352;23.808;2023-03-31T17:47:32;94018.16;;;11.62;51.97
62978;BME280;49073;42.352;23.808;2023-03-31T17:50:32;94009.44;;;11.76;51.81
62978;BME280;49073;42.352;23.808;2023-03-31T17:53:34;94009.25;;;11.25;54.05
62978;BME280;49073;42.352;23.808;2023-03-31T17:56:34;94007.19;;;10.93;55.31
62978;BME280;49073;42.352;23.808;2023-03-31T17:59:35;94009.03;;;10.85;55.70
62978;BME280;49073;42.352;23.808;2023-03-31T18:02:36;94003.66;;;10.78;55.86
62978;BME280;49073;42.352;23.808;2023-03-31T18:05:37;94008.19;;;10.74;56.38
62978;BME280;49073;42.352;23.808;2023-03-31T18:08:40;94017.78;;;10.86;55.26
62978;BME280;49073;42.352;23.808;2023-03-31T18:11:41;94023.00;;;10.71;56.57
62978;BME280;49073;42.352;23.808;2023-03-31T18:14:42;94011.66;;;10.33;57.47
62978;BME280;49073;42.352;23.808;2023-03-31T18:17:43;94017.78;;;10.37;57.29
62978;BME280;49073;42.352;23.808;2023-03-31T18:20:44;94021.13;;;10.30;57.77
62978;BME280;49073;42.352;23.808;2023-03-31T18:23:45;94015.47;;;10.36;57.84
62978;BME280;49073;42.352;23.808;2023-03-31T18:26:47;94016.22;;;10.32;57.51
62978;BME280;49073;42.352;23.808;2023-03-31T18:29:48;94007.88;;;10.38;57.55
62978;BME280;49073;42.352;23.808;2023-03-31T18:32:48;94011.38;;;10.42;57.18
62978;BME280;49073;42.352;23.808;2023-03-31T18:35:49;94004.16;;;10.46;57.27